createdAt,value
2019-03-30T00:02:23.616Z,46.40
2019-03-30T00:04:55.018Z,28.27
2019-03-30T00:07:26.338Z,15.18
2019-03-30T00:09:57.578Z,16.02
2019-03-30T00:12:28.881Z,15.75
2019-03-30T00:15:00.245Z,36.25
2019-03-30T00:17:31.456Z,32.78
2019-03-30T00:20:02.748Z,39.10
2019-03-30T00:22:34.055Z,35.10
2019-03-30T00:25:05.831Z,32.08
2019-03-30T00:27:37.054Z,52.75
2019-03-30T00:30:08.448Z,72.47
2019-03-30T00:32:39.739Z,46.77
2019-03-30T00:35:11.057Z,44.63
2019-03-30T00:37:42.286Z,46.25
2019-03-30T00:40:13.588Z,49.50
2019-03-30T00:42:44.900Z,42.55
2019-03-30T00:45:16.183Z,42.20
2019-03-30T00:47:47.429Z,45.50
2019-03-30T00:50:18.639Z,46.08
2019-03-30T00:52:49.966Z,49.38
2019-03-30T00:55:21.313Z,41.98
2019-03-30T00:57:52.453Z,49.67
2019-03-30T01:00:23.806Z,52.55
2019-03-30T01:02:55.163Z,53.00
2019-03-30T01:05:26.459Z,52.93
2019-03-30T01:07:57.652Z,61.63
2019-03-30T01:10:28.988Z,64.58
2019-03-30T01:13:00.054Z,54.90
2019-03-30T01:15:31.285Z,59.27
2019-03-30T01:18:02.579Z,56.42
2019-03-30T01:20:33.910Z,43.48
2019-03-30T01:23:05.187Z,53.95
2019-03-30T01:25:36.608Z,65.50
2019-03-30T01:28:07.910Z,60.55
2019-03-30T01:30:39.267Z,48.80
2019-03-30T01:33:10.591Z,53.17
2019-03-30T01:35:41.845Z,53.73
2019-03-30T01:38:13.068Z,51.63
2019-03-30T01:40:44.289Z,49.77
2019-03-30T01:43:15.482Z,53.38
2019-03-30T01:45:46.761Z,49.25
2019-03-30T01:48:18.014Z,50.25
2019-03-30T01:50:49.298Z,33.53
2019-03-30T01:53:20.578Z,56.10
2019-03-30T01:55:51.891Z,41.65
2019-03-30T01:58:23.191Z,39.77
2019-03-30T02:00:54.353Z,32.53
2019-03-30T02:03:25.634Z,28.52
2019-03-30T02:05:56.943Z,21.10
2019-03-30T02:08:28.237Z,31.40
2019-03-30T02:10:59.655Z,49.23
2019-03-30T02:13:30.877Z,49.65
2019-03-30T02:16:02.218Z,41.37
2019-03-30T02:18:33.572Z,56.50
2019-03-30T02:21:04.871Z,60.70
2019-03-30T02:23:36.361Z,62.05
2019-03-30T02:26:07.728Z,47.23
2019-03-30T02:28:38.987Z,44.93
2019-03-30T02:31:10.380Z,39.80
2019-03-30T02:33:41.842Z,36.70
2019-03-30T02:36:13.231Z,34.55
2019-03-30T02:38:44.600Z,34.92
2019-03-30T02:41:15.932Z,31.97
2019-03-30T02:43:47.215Z,29.55
2019-03-30T02:46:18.411Z,36.10
2019-03-30T02:48:49.799Z,34.70
2019-03-30T02:51:21.111Z,33.50
2019-03-30T02:56:43.540Z,29.98
2019-03-30T02:59:14.752Z,37.58
2019-03-30T03:01:46.053Z,38.08
2019-03-30T03:04:17.369Z,32.95
2019-03-30T03:06:48.692Z,28.62
2019-03-30T06:31:16.881Z,69.60
2019-03-30T06:33:49.003Z,77.62
2019-03-30T06:36:20.415Z,78.72
2019-03-30T06:38:51.940Z,86.63
2019-03-30T06:41:23.323Z,91.57
2019-03-30T06:43:54.646Z,98.17
2019-03-30T06:46:30.025Z,114.70
2019-03-30T06:49:01.390Z,118.93
2019-03-30T06:51:32.620Z,109.20
2019-03-30T06:54:04.620Z,115.88
2019-03-30T06:56:36.126Z,107.37
2019-03-30T06:59:07.415Z,111.37
2019-03-30T07:01:38.746Z,104.90
2019-03-30T07:04:11.345Z,105.17
2019-03-30T07:06:44.724Z,105.05
2019-03-30T07:09:18.730Z,98.70
2019-03-30T07:11:53.619Z,92.72
2019-03-30T07:14:27.424Z,87.27
2019-03-30T07:17:01.925Z,79.90
2019-03-30T07:19:37.970Z,89.90
2019-03-30T07:22:09.276Z,77.78
2019-03-30T07:24:40.646Z,84.65
2019-03-30T07:27:11.932Z,73.92
2019-03-30T07:29:43.290Z,73.57
2019-03-30T07:32:14.602Z,79.03
2019-03-30T07:34:45.970Z,67.40
2019-03-30T07:37:17.272Z,64.75
2019-03-30T07:39:48.586Z,65.85
2019-03-30T07:42:19.888Z,64.97
2019-03-30T07:44:51.392Z,68.20
2019-03-30T07:47:22.744Z,65.12
2019-03-30T07:49:54.126Z,68.12
2019-03-30T07:52:25.402Z,61.18
2019-03-30T07:54:56.606Z,59.70
2019-03-30T07:57:27.852Z,60.00
2019-03-30T07:59:59.193Z,55.98
2019-03-30T08:02:30.421Z,53.58
2019-03-30T08:05:01.691Z,61.92
2019-03-30T08:07:32.972Z,53.80
2019-03-30T08:10:04.601Z,51.73
2019-03-30T08:12:36.587Z,54.33
2019-03-30T08:15:09.423Z,52.80
2019-03-30T08:17:43.108Z,49.08
2019-03-30T08:20:15.513Z,46.63
2019-03-30T08:22:46.812Z,48.05
2019-03-30T08:25:18.232Z,46.15
2019-03-30T08:27:49.569Z,48.57
2019-03-30T08:30:20.863Z,47.45
2019-03-30T08:32:52.245Z,45.38
2019-03-30T08:35:23.466Z,41.80
2019-03-30T08:37:54.747Z,44.50
2019-03-30T08:40:26.087Z,42.83
2019-03-30T08:42:57.428Z,40.43
2019-03-30T08:45:28.748Z,41.30
2019-03-30T08:48:00.010Z,40.83
2019-03-30T08:50:31.404Z,42.55
2019-03-30T08:53:02.727Z,42.05
2019-03-30T08:55:34.084Z,46.68
2019-03-30T08:58:05.390Z,39.13
2019-03-30T09:00:42.303Z,33.93
2019-03-30T09:03:13.788Z,40.33
2019-03-30T09:05:45.082Z,37.60
2019-03-30T09:08:16.446Z,36.68
2019-03-30T09:10:47.767Z,41.10
2019-03-30T09:13:19.083Z,45.70
2019-03-30T09:15:50.443Z,38.50
2019-03-30T09:18:21.793Z,36.48
2019-03-30T09:20:53.110Z,36.45
2019-03-30T09:23:24.610Z,37.37
2019-03-30T09:25:55.937Z,37.15
2019-03-30T09:28:27.272Z,40.05
2019-03-30T09:30:58.625Z,34.98
2019-03-30T09:33:29.911Z,34.83
2019-03-30T09:36:01.255Z,32.93
2019-03-30T09:38:32.573Z,31.90
2019-03-30T09:41:04.224Z,32.53
2019-03-30T09:43:37.504Z,30.90
2019-03-30T09:46:08.559Z,34.40
2019-03-30T09:48:39.857Z,32.83
2019-03-30T09:51:11.187Z,29.70
2019-03-30T09:53:42.549Z,32.60
2019-03-30T09:56:13.931Z,35.55
2019-03-30T09:58:45.193Z,32.63
2019-03-30T10:01:16.610Z,33.85
2019-03-30T10:03:47.932Z,37.78
2019-03-30T10:06:19.242Z,38.10
2019-03-30T10:08:50.483Z,34.50
2019-03-30T10:11:21.693Z,40.08
2019-03-30T10:13:52.933Z,38.65
2019-03-30T10:16:24.303Z,32.40
2019-03-30T10:18:55.538Z,34.83
2019-03-30T10:21:26.848Z,40.45
2019-03-30T10:23:58.107Z,37.93
2019-03-30T10:26:29.409Z,40.65
2019-03-30T10:29:00.669Z,37.27
2019-03-30T10:31:32.032Z,42.67
2019-03-30T10:34:03.340Z,36.83
2019-03-30T10:36:34.558Z,35.88
2019-03-30T10:39:07.747Z,42.27
2019-03-30T10:41:39.058Z,35.58
2019-03-30T10:44:10.397Z,36.10
2019-03-30T10:46:41.793Z,37.20
2019-03-30T10:49:13.098Z,35.13
2019-03-30T10:51:44.295Z,37.55
2019-03-30T10:54:15.604Z,39.60
2019-03-30T10:56:46.847Z,39.15
2019-03-30T10:59:18.063Z,37.98
2019-03-30T11:01:49.393Z,37.67
2019-03-30T11:04:20.586Z,37.33
2019-03-30T11:06:51.872Z,32.63
2019-03-30T11:09:23.196Z,37.60
2019-03-30T11:11:54.515Z,37.05
2019-03-30T11:14:25.917Z,36.90
2019-03-30T11:16:57.163Z,36.45
2019-03-30T11:19:28.385Z,39.33
2019-03-30T11:22:02.905Z,38.78
2019-03-30T11:24:32.660Z,39.08
2019-03-30T11:27:04.036Z,38.40
2019-03-30T11:29:35.245Z,41.73
2019-03-30T11:32:06.603Z,40.37
2019-03-30T11:34:37.750Z,37.50
2019-03-30T11:37:09.077Z,42.43
2019-03-30T11:39:40.335Z,44.38
2019-03-30T11:42:11.635Z,43.48
2019-03-30T11:44:42.898Z,36.68
2019-03-30T11:47:14.244Z,40.90
2019-03-30T11:49:45.481Z,43.90
2019-03-30T11:52:16.728Z,37.53
2019-03-30T11:54:48.046Z,41.90
2019-03-30T11:57:19.347Z,46.95
2019-03-30T11:59:50.674Z,39.80
2019-03-30T12:02:28.171Z,40.48
2019-03-30T12:04:55.167Z,41.77
2019-03-30T12:07:26.509Z,41.33
2019-03-30T12:09:57.829Z,39.50
2019-03-30T12:12:28.960Z,40.73
2019-03-30T12:15:00.488Z,37.28
2019-03-30T12:17:31.784Z,37.10
2019-03-30T12:20:03.079Z,43.70
2019-03-30T12:22:34.395Z,39.35
2019-03-30T12:25:06.425Z,35.70
2019-03-30T12:27:37.659Z,32.57
2019-03-30T12:30:09.306Z,34.70
2019-03-30T12:32:40.700Z,34.08
2019-03-30T12:35:12.329Z,37.85
2019-03-30T12:37:43.506Z,32.05
2019-03-30T12:40:16.291Z,34.33
2019-03-30T12:42:47.949Z,31.42
2019-03-30T12:45:19.329Z,32.63
2019-03-30T12:47:50.619Z,33.67
2019-03-30T12:50:21.929Z,32.05
2019-03-30T12:52:53.278Z,34.43
2019-03-30T12:55:24.596Z,37.95
2019-03-30T12:57:55.918Z,27.40
2019-03-30T13:00:27.216Z,25.95
2019-03-30T13:02:58.547Z,28.52
2019-03-30T13:05:29.823Z,27.60
2019-03-30T13:08:01.110Z,26.25
2019-03-30T13:10:32.440Z,22.25
2019-03-30T13:13:03.656Z,20.70
2019-03-30T13:15:34.886Z,24.10
2019-03-30T13:18:06.217Z,22.15
2019-03-30T13:20:37.517Z,26.97
2019-03-30T13:23:08.768Z,19.57
2019-03-30T13:25:40.087Z,21.15
2019-03-30T13:28:11.413Z,24.02
2019-03-30T13:30:42.734Z,28.00
2019-03-30T13:33:14.073Z,21.70
2019-03-30T13:35:45.263Z,21.90
2019-03-30T13:38:16.399Z,22.58
2019-03-30T13:40:47.775Z,21.07
2019-03-30T13:43:19.090Z,25.82
2019-03-30T13:45:50.356Z,25.40
2019-03-30T13:48:21.688Z,26.02
2019-03-30T13:50:52.978Z,25.15
2019-03-30T13:53:24.211Z,23.55
2019-03-30T13:55:55.493Z,25.90
2019-03-30T13:58:26.747Z,24.02
2019-03-30T14:00:58.050Z,23.65
2019-03-30T14:03:29.253Z,22.03
2019-03-30T14:06:00.560Z,22.27
2019-03-30T14:08:31.759Z,22.45
2019-03-30T14:11:03.132Z,23.90
2019-03-30T14:13:34.434Z,24.37
2019-03-30T14:16:05.739Z,24.40
2019-03-30T14:18:37.192Z,22.13
2019-03-30T14:21:08.497Z,21.57
2019-03-30T14:23:43.212Z,22.87
2019-03-30T14:26:12.923Z,19.80
2019-03-30T14:28:44.041Z,20.92
2019-03-30T14:31:15.300Z,18.37
2019-03-30T14:33:46.581Z,19.90
2019-03-30T14:36:17.852Z,17.27
2019-03-30T14:38:49.152Z,18.45
2019-03-30T14:41:20.921Z,21.45
2019-03-30T14:43:52.301Z,19.60
2019-03-30T14:46:23.483Z,19.87
2019-03-30T14:48:54.820Z,19.70
2019-03-30T14:51:26.031Z,22.13
2019-03-30T14:53:57.349Z,23.70
2019-03-30T14:56:28.695Z,19.15
2019-03-30T14:59:10.090Z,19.45
2019-03-30T15:01:33.056Z,19.02
2019-03-30T15:04:04.620Z,19.12
2019-03-30T15:06:35.927Z,18.27
2019-03-30T15:09:08.776Z,20.83
2019-03-30T15:11:40.061Z,20.70
2019-03-30T15:14:11.348Z,17.37
2019-03-30T15:16:42.800Z,21.70
2019-03-30T15:19:14.163Z,20.53
2019-03-30T15:21:45.445Z,20.87
2019-03-30T15:24:17.000Z,23.10
2019-03-30T15:26:59.374Z,19.30
2019-03-30T15:29:21.578Z,21.17
2019-03-30T15:31:52.898Z,19.10
2019-03-30T15:34:24.417Z,17.50
2019-03-30T15:36:55.887Z,19.73
2019-03-30T15:39:27.689Z,16.60
2019-03-30T15:41:59.104Z,19.57
2019-03-30T15:44:30.451Z,19.67
2019-03-30T15:47:01.817Z,18.62
2019-03-30T15:49:33.120Z,16.50
2019-03-30T15:52:13.723Z,19.02
2019-03-30T15:54:37.655Z,19.92
2019-03-30T15:57:14.321Z,17.95
2019-03-30T15:59:42.226Z,17.48
2019-03-30T16:02:13.583Z,17.60
2019-03-30T16:04:45.026Z,21.82
2019-03-30T16:07:16.597Z,16.25
2019-03-30T16:09:48.029Z,15.20
2019-03-30T16:12:19.605Z,16.57
2019-03-30T16:14:51.040Z,18.70
2019-03-30T16:17:22.438Z,15.05
2019-03-30T16:19:53.913Z,13.32
2019-03-30T16:22:25.340Z,16.20
2019-03-30T16:24:56.862Z,17.77
2019-03-30T16:27:29.490Z,13.72
2019-03-30T16:30:01.142Z,16.40
2019-03-30T16:32:32.633Z,17.27
2019-03-30T16:35:04.098Z,18.48
2019-03-30T16:37:35.459Z,17.48
2019-03-30T16:40:07.498Z,17.20
2019-03-30T16:42:38.847Z,19.62
2019-03-30T16:45:10.932Z,17.23
2019-03-30T16:47:42.380Z,14.93
2019-03-30T16:50:15.374Z,18.10
2019-03-30T16:52:46.735Z,14.13
2019-03-30T16:55:18.128Z,20.25
2019-03-30T16:57:49.405Z,17.98
2019-03-30T17:00:20.865Z,16.85
2019-03-30T17:02:52.243Z,17.45
2019-03-30T17:05:23.621Z,21.85
2019-03-30T17:07:55.049Z,18.32
2019-03-30T17:10:26.412Z,17.65
2019-03-30T17:12:57.829Z,19.55
2019-03-30T17:15:29.270Z,21.57
2019-03-30T17:18:00.612Z,24.87
2019-03-30T17:20:31.972Z,26.90
2019-03-30T17:23:03.274Z,29.42
2019-03-30T17:25:34.693Z,39.35
2019-03-30T17:28:07.076Z,56.35
2019-03-30T17:30:38.956Z,63.42
2019-03-30T17:33:10.312Z,63.05
2019-03-30T17:35:41.774Z,63.00
2019-03-30T17:38:13.301Z,60.45
2019-03-30T17:40:44.653Z,68.62
2019-03-30T17:43:16.103Z,72.77
2019-03-30T17:45:47.578Z,70.20
2019-03-30T17:48:19.151Z,70.40
2019-03-30T17:50:50.637Z,68.10
2019-03-30T17:53:22.250Z,69.42
2019-03-30T17:55:53.636Z,66.57
2019-03-30T17:58:25.168Z,68.35
2019-03-30T18:00:56.646Z,71.83
2019-03-30T18:03:28.073Z,71.25
2019-03-30T18:05:59.438Z,71.15
2019-03-30T18:08:30.926Z,79.15
2019-03-30T18:11:04.112Z,74.93
2019-03-30T18:13:36.976Z,79.97
2019-03-30T18:16:08.463Z,88.55
2019-03-30T18:18:39.887Z,97.70
2019-03-30T18:21:12.198Z,99.13
2019-03-30T18:23:43.545Z,105.47
2019-03-30T18:26:15.251Z,103.05
2019-03-30T18:28:46.567Z,103.60
2019-03-30T18:31:18.354Z,103.37
2019-03-30T18:33:50.354Z,92.12
2019-03-30T18:36:22.115Z,85.53
2019-03-30T18:39:08.784Z,87.97
2019-03-30T18:41:29.125Z,84.62
2019-03-30T18:44:02.173Z,84.03
2019-03-30T18:46:33.742Z,89.17
2019-03-30T18:49:05.238Z,90.25
2019-03-30T18:51:37.466Z,87.03
2019-03-30T18:54:08.983Z,87.63
2019-03-30T18:56:40.559Z,101.53
2019-03-30T18:59:12.121Z,102.40
2019-03-30T19:01:43.558Z,107.10
2019-03-30T19:04:15.020Z,102.20
2019-03-30T19:06:46.488Z,111.85
2019-03-30T19:09:17.951Z,108.10
2019-03-30T19:11:49.832Z,119.77
2019-03-30T19:14:21.413Z,113.95
2019-03-30T19:16:52.887Z,115.40
2019-03-30T19:19:24.338Z,108.10
2019-03-30T19:21:55.757Z,108.40
2019-03-30T19:24:27.215Z,115.75
2019-03-30T19:26:58.732Z,109.48
2019-03-30T19:29:30.175Z,116.05
2019-03-30T19:32:01.580Z,119.45
2019-03-30T19:34:32.976Z,118.40
2019-03-30T19:37:04.356Z,124.00
2019-03-30T19:39:35.778Z,111.50
2019-03-30T19:42:07.664Z,121.25
2019-03-30T19:44:39.051Z,113.10
2019-03-30T19:47:10.473Z,114.82
2019-03-30T19:49:41.906Z,111.57
2019-03-30T19:52:13.301Z,112.47
2019-03-30T19:54:44.851Z,111.57
2019-03-30T19:57:16.296Z,121.10
2019-03-30T19:59:47.731Z,116.28
2019-03-30T20:02:19.195Z,111.03
2019-03-30T20:04:50.621Z,109.72
2019-03-30T20:07:22.130Z,106.30
2019-03-30T20:09:53.531Z,110.52
2019-03-30T20:12:25.229Z,101.82
2019-03-30T20:14:56.803Z,100.33
2019-03-30T20:17:28.314Z,114.83
2019-03-30T20:19:59.726Z,100.42
2019-03-30T20:22:31.152Z,96.95
2019-03-30T20:25:02.490Z,99.17
2019-03-30T20:27:33.811Z,108.70
2019-03-30T20:30:06.227Z,118.20
2019-03-30T20:32:37.762Z,112.42
2019-03-30T20:35:11.251Z,105.87
2019-03-30T20:37:43.015Z,108.47
2019-03-30T20:40:14.591Z,114.28
2019-03-30T20:42:46.010Z,124.80
2019-03-30T20:45:18.781Z,124.95
2019-03-30T20:47:50.230Z,118.17
2019-03-30T20:50:21.642Z,118.08
2019-03-30T20:52:53.002Z,129.87
2019-03-30T20:55:24.343Z,123.63
2019-03-30T20:57:55.757Z,124.87
2019-03-30T21:00:27.114Z,127.47
2019-03-30T21:02:58.633Z,128.25
2019-03-30T21:05:30.039Z,128.68
2019-03-30T21:08:01.544Z,121.33
2019-03-30T21:10:32.958Z,124.97
2019-03-30T21:13:04.523Z,129.53
2019-03-30T21:15:36.075Z,117.35
2019-03-30T21:18:07.379Z,116.83
2019-03-30T21:20:38.620Z,117.05
2019-03-30T21:23:10.010Z,119.30
2019-03-30T21:25:41.341Z,124.15
2019-03-30T21:28:12.685Z,124.60
2019-03-30T21:30:44.030Z,126.90
2019-03-30T21:33:15.276Z,136.28
2019-03-30T21:35:46.595Z,126.27
2019-03-30T21:38:17.966Z,124.55
2019-03-30T21:40:49.228Z,132.90
2019-03-30T21:43:20.571Z,127.93
2019-03-30T21:45:51.884Z,122.37
2019-03-30T21:48:23.114Z,119.40
2019-03-30T21:50:54.342Z,121.53
2019-03-30T21:53:25.636Z,114.70
2019-03-30T21:55:57.007Z,125.85
2019-03-30T21:58:29.192Z,124.50
2019-03-30T22:01:00.556Z,125.20
2019-03-30T22:03:31.811Z,121.28
2019-03-30T22:06:03.173Z,112.90
2019-03-30T22:08:34.582Z,122.02
2019-03-30T22:11:06.264Z,128.70
2019-03-30T22:13:38.667Z,125.78
2019-03-30T22:16:10.031Z,126.63
2019-03-30T22:18:41.381Z,122.20
2019-03-30T22:21:12.626Z,124.05
2019-03-30T22:23:44.174Z,117.33
2019-03-30T22:26:15.599Z,122.17
2019-03-30T22:28:47.059Z,128.90
2019-03-30T22:31:18.767Z,125.78
2019-03-30T22:33:50.217Z,139.20
2019-03-30T22:36:21.753Z,133.00
2019-03-30T22:38:53.257Z,135.43
2019-03-30T22:41:24.783Z,144.05
2019-03-30T22:43:56.243Z,137.55
2019-03-30T22:46:27.791Z,141.68
2019-03-30T22:48:59.235Z,138.62
2019-03-30T22:51:30.643Z,132.30
2019-03-30T22:54:02.126Z,127.27
2019-03-30T22:56:33.535Z,134.90
2019-03-30T22:59:05.041Z,120.65
2019-03-30T23:01:36.801Z,129.12
2019-03-30T23:04:08.406Z,126.02
2019-03-30T23:06:39.852Z,117.53
2019-03-30T23:09:11.701Z,109.85
2019-03-30T23:11:43.488Z,114.80
2019-03-30T23:14:14.956Z,105.33
2019-03-30T23:16:46.466Z,113.90
2019-03-30T23:19:17.965Z,111.80
2019-03-30T23:21:49.436Z,128.07
2019-03-30T23:24:20.928Z,114.85
2019-03-30T23:26:52.472Z,117.90
2019-03-30T23:29:23.935Z,116.53
2019-03-30T23:31:55.472Z,120.17
2019-03-30T23:34:27.000Z,99.17
2019-03-30T23:36:58.539Z,101.33
2019-03-30T23:39:29.997Z,83.20
2019-03-30T23:42:01.560Z,90.07
2019-03-30T23:44:33.085Z,79.00
2019-03-30T23:47:04.635Z,101.47
2019-03-30T23:49:37.113Z,77.40
2019-03-30T23:52:08.674Z,77.60
2019-03-30T23:54:40.178Z,71.87
2019-03-30T23:57:11.665Z,81.95
2019-03-30T23:59:43.150Z,78.07
